sensor_id;sensor_type;location;lat;lon;timestamp;temperature;humidity
50162;DHT22;36061;48.116;11.612;2023-04-16T00:00:01;5.30;99.90
50162;DHT22;36061;48.116;11.612;2023-04-16T00:02:37;5.20;99.90
50162;DHT22;36061;48.116;11.612;2023-04-16T00:05:04;5.30;99.90
50162;DHT22;36061;48.116;11.612;2023-04-16T00:07:31;5.30;99.90
50162;DHT22;36061;48.116;11.612;2023-04-16T00:09:59;5.30;99.90
50162;DHT22;36061;48.116;11.612;2023-04-16T00:12:26;5.30;99.90
50162;DHT22;36061;48.116;11.612;2023-04-16T00:14:54;5.30;99.90
50162;DHT22;36061;48.116;11.612;2023-04-16T00:17:21;5.30;99.90
50162;DHT22;36061;48.116;11.612;2023-04-16T00:19:49;5.30;99.90
50162;DHT22;36061;48.116;11.612;2023-04-16T00:22:16;5.30;99.90
50162;DHT22;36061;48.116;11.612;2023-04-16T00:24:43;5.20;99.90
50162;DHT22;36061;48.116;11.612;2023-04-16T00:27:10;5.30;99.90
50162;DHT22;36061;48.116;11.612;2023-04-16T00:29:37;5.20;99.90
50162;DHT22;36061;48.116;11.612;2023-04-16T00:32:07;5.30;99.90
50162;DHT22;36061;48.116;11.612;2023-04-16T00:34:35;5.20;99.90
50162;DHT22;36061;48.116;11.612;2023-04-16T00:37:02;5.20;99.90
50162;DHT22;36061;48.116;11.612;2023-04-16T00:39:29;5.20;99.90
50162;DHT22;36061;48.116;11.612;2023-04-16T00:41:56;5.20;99.90
50162;DHT22;36061;48.116;11.612;2023-04-16T00:44:24;5.20;99.90
50162;DHT22;36061;48.116;11.612;2023-04-16T00:46:52;5.20;99.90
50162;DHT22;36061;48.116;11.612;2023-04-16T00:49:21;5.20;99.90
50162;DHT22;36061;48.116;11.612;2023-04-16T00:51:49;5.30;99.90
50162;DHT22;36061;48.116;11.612;2023-04-16T00:54:17;5.30;99.90
50162;DHT22;36061;48.116;11.612;2023-04-16T00:56:45;5.30;99.90
50162;DHT22;36061;48.116;11.612;2023-04-16T00:59:14;5.30;99.90
50162;DHT22;36061;48.116;11.612;2023-04-16T01:01:42;5.30;99.90
50162;DHT22;36061;48.116;11.612;2023-04-16T01:04:09;5.20;99.90
50162;DHT22;36061;48.116;11.612;2023-04-16T01:06:38;5.20;99.90
50162;DHT22;36061;48.116;11.612;2023-04-16T01:09:05;5.20;99.90
50162;DHT22;36061;48.116;11.612;2023-04-16T01:11:32;5.20;99.90
50162;DHT22;36061;48.116;11.612;2023-04-16T01:14:02;5.20;99.90
50162;DHT22;36061;48.116;11.612;2023-04-16T01:16:29;5.20;99.90
50162;DHT22;36061;48.116;11.612;2023-04-16T01:18:56;5.30;99.90
50162;DHT22;36061;48.116;11.612;2023-04-16T01:21:25;5.30;99.90
50162;DHT22;36061;48.116;11.612;2023-04-16T01:23:52;5.20;99.90
50162;DHT22;36061;48.116;11.612;2023-04-16T01:26:19;5.20;99.90
50162;DHT22;36061;48.116;11.612;2023-04-16T01:28:47;5.20;99.90
50162;DHT22;36061;48.116;11.612;2023-04-16T01:31:14;5.20;99.90
50162;DHT22;36061;48.116;11.612;2023-04-16T01:33:54;5.20;99.90
50162;DHT22;36061;48.116;11.612;2023-04-16T01:36:22;5.20;99.90
50162;DHT22;36061;48.116;11.612;2023-04-16T01:38:50;5.30;99.90
50162;DHT22;36061;48.116;11.612;2023-04-16T01:41:17;5.30;99.90
50162;DHT22;36061;48.116;11.612;2023-04-16T01:43:45;5.30;99.90
50162;DHT22;36061;48.116;11.612;2023-04-16T01:46:14;5.30;99.90
50162;DHT22;36061;48.116;11.612;2023-04-16T01:48:44;5.20;99.90
50162;DHT22;36061;48.116;11.612;2023-04-16T01:51:11;5.20;99.90
50162;DHT22;36061;48.116;11.612;2023-04-16T01:53:38;5.20;99.90
50162;DHT22;36061;48.116;11.612;2023-04-16T01:56:07;5.30;99.90
50162;DHT22;36061;48.116;11.612;2023-04-16T01:58:34;5.30;99.90
50162;DHT22;36061;48.116;11.612;2023-04-16T02:01:02;5.30;99.90
50162;DHT22;36061;48.116;11.612;2023-04-16T02:03:30;5.30;99.90
50162;DHT22;36061;48.116;11.612;2023-04-16T02:05:58;5.30;99.90
50162;DHT22;36061;48.116;11.612;2023-04-16T02:08:28;5.30;99.90
50162;DHT22;36061;48.116;11.612;2023-04-16T02:10:56;5.30;99.90
50162;DHT22;36061;48.116;11.612;2023-04-16T02:13:26;5.30;99.90
50162;DHT22;36061;48.116;11.612;2023-04-16T02:15:53;5.30;99.90
50162;DHT22;36061;48.116;11.612;2023-04-16T02:18:35;5.30;99.90
50162;DHT22;36061;48.116;11.612;2023-04-16T02:21:02;5.30;99.90
50162;DHT22;36061;48.116;11.612;2023-04-16T02:23:31;5.30;99.90
50162;DHT22;36061;48.116;11.612;2023-04-16T02:25:59;5.30;99.90
50162;DHT22;36061;48.116;11.612;2023-04-16T02:28:28;5.30;99.90
50162;DHT22;36061;48.116;11.612;2023-04-16T02:30:56;5.30;99.90
50162;DHT22;36061;48.116;11.612;2023-04-16T02:33:25;5.30;99.90
50162;DHT22;36061;48.116;11.612;2023-04-16T02:36:00;5.30;99.90
50162;DHT22;36061;48.116;11.612;2023-04-16T02:38:27;5.30;99.90
50162;DHT22;36061;48.116;11.612;2023-04-16T02:40:54;5.30;99.90
50162;DHT22;36061;48.116;11.612;2023-04-16T02:43:22;5.30;99.90
50162;DHT22;36061;48.116;11.612;2023-04-16T02:45:50;5.30;99.90
50162;DHT22;36061;48.116;11.612;2023-04-16T02:48:17;5.40;99.90
50162;DHT22;36061;48.116;11.612;2023-04-16T02:50:45;5.30;99.90
50162;DHT22;36061;48.116;11.612;2023-04-16T02:53:12;5.40;99.90
50162;DHT22;36061;48.116;11.612;2023-04-16T02:55:39;5.30;99.90
50162;DHT22;36061;48.116;11.612;2023-04-16T02:58:06;5.40;99.90
50162;DHT22;36061;48.116;11.612;2023-04-16T03:00:33;5.40;99.90
50162;DHT22;36061;48.116;11.612;2023-04-16T03:03:02;5.40;99.90
50162;DHT22;36061;48.116;11.612;2023-04-16T03:05:30;5.40;99.90
50162;DHT22;36061;48.116;11.612;2023-04-16T03:07:57;5.40;99.90
50162;DHT22;36061;48.116;11.612;2023-04-16T03:10:25;5.40;99.90
50162;DHT22;36061;48.116;11.612;2023-04-16T03:12:52;5.40;99.90
50162;DHT22;36061;48.116;11.612;2023-04-16T03:15:19;5.30;99.90
50162;DHT22;36061;48.116;11.612;2023-04-16T03:17:46;5.30;99.90
50162;DHT22;36061;48.116;11.612;2023-04-16T03:20:15;5.30;99.90
50162;DHT22;36061;48.116;11.612;2023-04-16T03:22:44;5.30;99.90
50162;DHT22;36061;48.116;11.612;2023-04-16T03:25:12;5.30;99.90
50162;DHT22;36061;48.116;11.612;2023-04-16T03:27:39;5.30;99.90
50162;DHT22;36061;48.116;11.612;2023-04-16T03:30:07;5.30;99.90
50162;DHT22;36061;48.116;11.612;2023-04-16T03:32:37;5.30;99.90
50162;DHT22;36061;48.116;11.612;2023-04-16T03:35:05;5.40;99.90
50162;DHT22;36061;48.116;11.612;2023-04-16T03:37:34;5.30;99.90
50162;DHT22;36061;48.116;11.612;2023-04-16T03:40:01;5.30;99.90
50162;DHT22;36061;48.116;11.612;2023-04-16T03:42:30;5.40;99.90
50162;DHT22;36061;48.116;11.612;2023-04-16T03:44:58;5.40;99.90
50162;DHT22;36061;48.116;11.612;2023-04-16T03:47:26;5.40;99.90
50162;DHT22;36061;48.116;11.612;2023-04-16T03:49:57;5.40;99.90
50162;DHT22;36061;48.116;11.612;2023-04-16T03:52:24;5.40;99.90
50162;DHT22;36061;48.116;11.612;2023-04-16T03:54:54;5.40;99.90
50162;DHT22;36061;48.116;11.612;2023-04-16T03:57:26;5.40;99.90
50162;DHT22;36061;48.116;11.612;2023-04-16T03:59:59;5.40;99.90
50162;DHT22;36061;48.116;11.612;2023-04-16T04:02:29;5.40;99.90
50162;DHT22;36061;48.116;11.612;2023-04-16T04:04:57;5.40;99.90
50162;DHT22;36061;48.116;11.612;2023-04-16T04:07:24;5.40;99.90
50162;DHT22;36061;48.116;11.612;2023-04-16T04:09:53;5.40;99.90
50162;DHT22;36061;48.116;11.612;2023-04-16T04:12:20;5.30;99.90
50162;DHT22;36061;48.116;11.612;2023-04-16T04:14:48;5.30;99.90
50162;DHT22;36061;48.116;11.612;2023-04-16T04:17:15;5.30;99.90
50162;DHT22;36061;48.116;11.612;2023-04-16T04:19:42;5.30;99.90
50162;DHT22;36061;48.116;11.612;2023-04-16T04:22:09;5.30;99.90
50162;DHT22;36061;48.116;11.612;2023-04-16T04:24:37;5.20;99.90
50162;DHT22;36061;48.116;11.612;2023-04-16T04:27:06;5.20;99.90
50162;DHT22;36061;48.116;11.612;2023-04-16T04:29:33;5.20;99.90
50162;DHT22;36061;48.116;11.612;2023-04-16T04:32:00;5.20;99.90
50162;DHT22;36061;48.116;11.612;2023-04-16T04:34:28;5.30;99.90
50162;DHT22;36061;48.116;11.612;2023-04-16T04:36:57;5.30;99.90
50162;DHT22;36061;48.116;11.612;2023-04-16T04:39:25;5.30;99.90
50162;DHT22;36061;48.116;11.612;2023-04-16T04:41:53;5.20;99.90
50162;DHT22;36061;48.116;11.612;2023-04-16T04:44:21;5.30;99.90
50162;DHT22;36061;48.116;11.612;2023-04-16T04:46:48;5.30;99.90
50162;DHT22;36061;48.116;11.612;2023-04-16T04:49:16;5.30;99.90
50162;DHT22;36061;48.116;11.612;2023-04-16T04:51:43;5.30;99.90
50162;DHT22;36061;48.116;11.612;2023-04-16T04:54:10;5.30;99.90
50162;DHT22;36061;48.116;11.612;2023-04-16T04:56:37;5.30;99.90
50162;DHT22;36061;48.116;11.612;2023-04-16T04:59:04;5.30;99.90
50162;DHT22;36061;48.116;11.612;2023-04-16T05:01:34;5.30;99.90
50162;DHT22;36061;48.116;11.612;2023-04-16T05:04:01;5.30;99.90
50162;DHT22;36061;48.116;11.612;2023-04-16T05:06:29;5.40;99.90
50162;DHT22;36061;48.116;11.612;2023-04-16T05:08:56;5.40;99.90
50162;DHT22;36061;48.116;11.612;2023-04-16T05:11:23;5.30;99.90
50162;DHT22;36061;48.116;11.612;2023-04-16T05:13:50;5.30;99.90
50162;DHT22;36061;48.116;11.612;2023-04-16T05:16:17;5.40;99.90
50162;DHT22;36061;48.116;11.612;2023-04-16T05:18:46;5.40;99.90
50162;DHT22;36061;48.116;11.612;2023-04-16T05:21:13;5.40;99.90
50162;DHT22;36061;48.116;11.612;2023-04-16T05:23:40;5.40;99.90
50162;DHT22;36061;48.116;11.612;2023-04-16T05:26:07;5.40;99.90
50162;DHT22;36061;48.116;11.612;2023-04-16T05:28:34;5.40;99.90
50162;DHT22;36061;48.116;11.612;2023-04-16T05:31:02;5.30;99.90
50162;DHT22;36061;48.116;11.612;2023-04-16T05:33:29;5.40;99.90
50162;DHT22;36061;48.116;11.612;2023-04-16T05:35:57;5.50;99.90
50162;DHT22;36061;48.116;11.612;2023-04-16T05:38:25;5.50;99.90
50162;DHT22;36061;48.116;11.612;2023-04-16T05:40:52;5.40;99.90
50162;DHT22;36061;48.116;11.612;2023-04-16T05:43:19;5.40;99.90
50162;DHT22;36061;48.116;11.612;2023-04-16T05:45:46;5.40;99.90
50162;DHT22;36061;48.116;11.612;2023-04-16T05:48:13;5.40;99.90
50162;DHT22;36061;48.116;11.612;2023-04-16T05:50:40;5.40;99.90
50162;DHT22;36061;48.116;11.612;2023-04-16T05:53:09;5.40;99.90
50162;DHT22;36061;48.116;11.612;2023-04-16T05:55:38;5.50;99.90
50162;DHT22;36061;48.116;11.612;2023-04-16T05:58:06;5.50;99.90
50162;DHT22;36061;48.116;11.612;2023-04-16T06:00:33;5.40;99.90
50162;DHT22;36061;48.116;11.612;2023-04-16T06:03:01;5.50;99.90
50162;DHT22;36061;48.116;11.612;2023-04-16T06:05:28;5.50;99.90
50162;DHT22;36061;48.116;11.612;2023-04-16T06:07:56;5.50;99.90
50162;DHT22;36061;48.116;11.612;2023-04-16T06:10:24;5.50;99.90
50162;DHT22;36061;48.116;11.612;2023-04-16T06:12:52;5.50;99.90
50162;DHT22;36061;48.116;11.612;2023-04-16T06:15:19;5.60;99.90
50162;DHT22;36061;48.116;11.612;2023-04-16T06:17:46;5.60;99.90
50162;DHT22;36061;48.116;11.612;2023-04-16T06:20:13;5.60;99.90
50162;DHT22;36061;48.116;11.612;2023-04-16T06:22:40;5.70;99.90
50162;DHT22;36061;48.116;11.612;2023-04-16T06:25:08;5.70;99.90
50162;DHT22;36061;48.116;11.612;2023-04-16T06:27:37;5.70;99.90
50162;DHT22;36061;48.116;11.612;2023-04-16T06:30:10;5.80;99.90
50162;DHT22;36061;48.116;11.612;2023-04-16T06:32:37;5.90;99.90
50162;DHT22;36061;48.116;11.612;2023-04-16T06:35:05;5.90;99.90
50162;DHT22;36061;48.116;11.612;2023-04-16T06:37:32;5.90;99.90
50162;DHT22;36061;48.116;11.612;2023-04-16T06:40:00;5.90;99.90
50162;DHT22;36061;48.116;11.612;2023-04-16T06:42:27;5.90;99.90
50162;DHT22;36061;48.116;11.612;2023-04-16T06:44:56;6.00;99.90
50162;DHT22;36061;48.116;11.612;2023-04-16T06:47:23;6.00;99.90
50162;DHT22;36061;48.116;11.612;2023-04-16T06:49:51;6.10;99.90
50162;DHT22;36061;48.116;11.612;2023-04-16T06:52:19;6.20;99.90
50162;DHT22;36061;48.116;11.612;2023-04-16T06:54:46;6.20;99.90
50162;DHT22;36061;48.116;11.612;2023-04-16T06:57:14;6.20;99.90
50162;DHT22;36061;48.116;11.612;2023-04-16T06:59:41;6.20;99.90
50162;DHT22;36061;48.116;11.612;2023-04-16T07:02:10;6.10;99.90
50162;DHT22;36061;48.116;11.612;2023-04-16T07:04:37;6.10;99.90
50162;DHT22;36061;48.116;11.612;2023-04-16T07:07:04;6.10;99.90
50162;DHT22;36061;48.116;11.612;2023-04-16T07:09:32;6.10;99.90
50162;DHT22;36061;48.116;11.612;2023-04-16T07:11:59;6.10;99.90
50162;DHT22;36061;48.116;11.612;2023-04-16T07:14:26;6.10;99.90
50162;DHT22;36061;48.116;11.612;2023-04-16T07:16:53;6.10;99.90
50162;DHT22;36061;48.116;11.612;2023-04-16T07:19:22;6.10;99.90
50162;DHT22;36061;48.116;11.612;2023-04-16T07:21:49;6.10;99.90
50162;DHT22;36061;48.116;11.612;2023-04-16T07:24:17;6.10;99.90
50162;DHT22;36061;48.116;11.612;2023-04-16T07:26:44;6.20;99.90
50162;DHT22;36061;48.116;11.612;2023-04-16T07:29:11;6.20;99.90
50162;DHT22;36061;48.116;11.612;2023-04-16T07:31:38;6.30;99.90
50162;DHT22;36061;48.116;11.612;2023-04-16T07:34:05;6.40;99.90
50162;DHT22;36061;48.116;11.612;2023-04-16T07:36:34;6.50;99.90
50162;DHT22;36061;48.116;11.612;2023-04-16T07:39:03;6.70;99.90
50162;DHT22;36061;48.116;11.612;2023-04-16T07:41:30;6.70;99.90
50162;DHT22;36061;48.116;11.612;2023-04-16T07:43:58;6.70;99.90
50162;DHT22;36061;48.116;11.612;2023-04-16T07:46:25;7.10;99.90
50162;DHT22;36061;48.116;11.612;2023-04-16T07:48:52;7.60;99.90
50162;DHT22;36061;48.116;11.612;2023-04-16T07:51:19;7.90;99.90
50162;DHT22;36061;48.116;11.612;2023-04-16T07:53:48;8.00;99.90
50162;DHT22;36061;48.116;11.612;2023-04-16T07:56:15;8.10;99.90
50162;DHT22;36061;48.116;11.612;2023-04-16T07:58:42;8.00;99.90
50162;DHT22;36061;48.116;11.612;2023-04-16T08:01:10;7.80;99.90
50162;DHT22;36061;48.116;11.612;2023-04-16T08:03:38;7.60;99.90
50162;DHT22;36061;48.116;11.612;2023-04-16T08:06:05;7.40;99.90
50162;DHT22;36061;48.116;11.612;2023-04-16T08:08:32;7.40;99.90
50162;DHT22;36061;48.116;11.612;2023-04-16T08:11:01;7.30;99.90
50162;DHT22;36061;48.116;11.612;2023-04-16T08:13:28;7.30;99.90
50162;DHT22;36061;48.116;11.612;2023-04-16T08:15:56;7.20;99.90
50162;DHT22;36061;48.116;11.612;2023-04-16T08:18:23;7.00;99.90
50162;DHT22;36061;48.116;11.612;2023-04-16T08:20:50;7.00;99.90
50162;DHT22;36061;48.116;11.612;2023-04-16T08:23:17;7.00;99.90
50162;DHT22;36061;48.116;11.612;2023-04-16T08:25:45;7.00;99.90
50162;DHT22;36061;48.116;11.612;2023-04-16T08:28:13;7.00;99.90
50162;DHT22;36061;48.116;11.612;2023-04-16T08:30:40;7.10;99.90
50162;DHT22;36061;48.116;11.612;2023-04-16T08:33:08;7.20;99.90
50162;DHT22;36061;48.116;11.612;2023-04-16T08:35:35;7.20;99.90
50162;DHT22;36061;48.116;11.612;2023-04-16T08:38:02;7.30;99.90
50162;DHT22;36061;48.116;11.612;2023-04-16T08:40:30;7.40;99.90
50162;DHT22;36061;48.116;11.612;2023-04-16T08:42:58;7.40;99.90
50162;DHT22;36061;48.116;11.612;2023-04-16T08:45:29;7.40;99.90
50162;DHT22;36061;48.116;11.612;2023-04-16T08:47:57;7.40;99.90
50162;DHT22;36061;48.116;11.612;2023-04-16T08:50:26;7.40;99.90
50162;DHT22;36061;48.116;11.612;2023-04-16T08:52:57;7.60;99.90
50162;DHT22;36061;48.116;11.612;2023-04-16T08:55:31;7.70;99.90
50162;DHT22;36061;48.116;11.612;2023-04-16T08:58:01;7.90;99.90
50162;DHT22;36061;48.116;11.612;2023-04-16T09:00:32;8.00;99.90
50162;DHT22;36061;48.116;11.612;2023-04-16T09:03:01;8.10;99.90
50162;DHT22;36061;48.116;11.612;2023-04-16T09:05:28;8.10;99.90
50162;DHT22;36061;48.116;11.612;2023-04-16T09:07:56;8.20;99.90
50162;DHT22;36061;48.116;11.612;2023-04-16T09:10:25;8.30;99.90
50162;DHT22;36061;48.116;11.612;2023-04-16T09:12:54;8.40;99.90
50162;DHT22;36061;48.116;11.612;2023-04-16T09:15:22;8.60;99.90
50162;DHT22;36061;48.116;11.612;2023-04-16T09:17:51;8.70;99.90
50162;DHT22;36061;48.116;11.612;2023-04-16T09:20:19;8.80;99.90
50162;DHT22;36061;48.116;11.612;2023-04-16T09:22:46;8.80;99.90
50162;DHT22;36061;48.116;11.612;2023-04-16T09:25:14;8.90;99.90
50162;DHT22;36061;48.116;11.612;2023-04-16T09:27:41;8.80;99.90
50162;DHT22;36061;48.116;11.612;2023-04-16T09:30:20;8.70;99.90
50162;DHT22;36061;48.116;11.612;2023-04-16T09:32:48;8.80;99.90
50162;DHT22;36061;48.116;11.612;2023-04-16T09:35:18;8.80;99.90
50162;DHT22;36061;48.116;11.612;2023-04-16T09:37:54;8.90;99.90
50162;DHT22;36061;48.116;11.612;2023-04-16T09:40:26;9.00;99.90
50162;DHT22;36061;48.116;11.612;2023-04-16T09:42:56;9.20;99.90
50162;DHT22;36061;48.116;11.612;2023-04-16T09:45:26;9.20;99.90
50162;DHT22;36061;48.116;11.612;2023-04-16T09:48:02;9.30;99.90
50162;DHT22;36061;48.116;11.612;2023-04-16T09:50:31;9.50;99.90
50162;DHT22;36061;48.116;11.612;2023-04-16T09:53:01;9.60;99.90
50162;DHT22;36061;48.116;11.612;2023-04-16T09:55:28;9.70;99.90
50162;DHT22;36061;48.116;11.612;2023-04-16T09:57:59;9.70;99.90
50162;DHT22;36061;48.116;11.612;2023-04-16T10:00:28;9.70;99.90
50162;DHT22;36061;48.116;11.612;2023-04-16T10:03:03;9.80;99.90
50162;DHT22;36061;48.116;11.612;2023-04-16T10:05:32;9.80;99.90
50162;DHT22;36061;48.116;11.612;2023-04-16T10:07:59;9.80;99.90
50162;DHT22;36061;48.116;11.612;2023-04-16T10:10:27;9.70;99.90
50162;DHT22;36061;48.116;11.612;2023-04-16T10:12:54;9.70;99.90
50162;DHT22;36061;48.116;11.612;2023-04-16T10:15:22;9.70;99.90
50162;DHT22;36061;48.116;11.612;2023-04-16T10:17:50;9.70;99.90
50162;DHT22;36061;48.116;11.612;2023-04-16T10:20:18;9.50;99.90
50162;DHT22;36061;48.116;11.612;2023-04-16T10:22:47;9.40;99.90
50162;DHT22;36061;48.116;11.612;2023-04-16T10:25:14;9.30;99.90
50162;DHT22;36061;48.116;11.612;2023-04-16T10:27:43;9.30;99.90
50162;DHT22;36061;48.116;11.612;2023-04-16T10:30:12;9.30;99.90
50162;DHT22;36061;48.116;11.612;2023-04-16T10:32:41;9.30;99.90
50162;DHT22;36061;48.116;11.612;2023-04-16T10:35:14;9.40;99.90
50162;DHT22;36061;48.116;11.612;2023-04-16T10:37:42;9.50;99.90
50162;DHT22;36061;48.116;11.612;2023-04-16T10:40:25;9.50;99.90
50162;DHT22;36061;48.116;11.612;2023-04-16T10:42:54;9.60;99.90
50162;DHT22;36061;48.116;11.612;2023-04-16T10:45:26;9.60;99.90
50162;DHT22;36061;48.116;11.612;2023-04-16T10:47:55;9.70;99.90
50162;DHT22;36061;48.116;11.612;2023-04-16T10:50:23;9.70;99.90
50162;DHT22;36061;48.116;11.612;2023-04-16T10:53:16;9.60;99.90
50162;DHT22;36061;48.116;11.612;2023-04-16T10:56:09;9.40;99.90
50162;DHT22;36061;48.116;11.612;2023-04-16T10:58:38;9.30;99.90
50162;DHT22;36061;48.116;11.612;2023-04-16T11:01:06;9.20;99.90
50162;DHT22;36061;48.116;11.612;2023-04-16T11:03:35;9.20;99.90
50162;DHT22;36061;48.116;11.612;2023-04-16T11:06:15;9.10;99.90
50162;DHT22;36061;48.116;11.612;2023-04-16T11:08:44;9.10;99.90
50162;DHT22;36061;48.116;11.612;2023-04-16T11:11:13;9.20;99.90
50162;DHT22;36061;48.116;11.612;2023-04-16T11:13:42;9.30;99.90
50162;DHT22;36061;48.116;11.612;2023-04-16T11:16:10;9.40;99.90
50162;DHT22;36061;48.116;11.612;2023-04-16T11:18:39;9.40;99.90
50162;DHT22;36061;48.116;11.612;2023-04-16T11:21:08;9.40;99.90
50162;DHT22;36061;48.116;11.612;2023-04-16T11:23:49;9.50;99.90
50162;DHT22;36061;48.116;11.612;2023-04-16T11:26:25;9.50;99.90
50162;DHT22;36061;48.116;11.612;2023-04-16T11:28:53;9.50;99.90
50162;DHT22;36061;48.116;11.612;2023-04-16T11:31:21;9.40;99.90
50162;DHT22;36061;48.116;11.612;2023-04-16T11:33:49;9.40;99.90
50162;DHT22;36061;48.116;11.612;2023-04-16T11:36:16;9.40;99.90
50162;DHT22;36061;48.116;11.612;2023-04-16T11:38:46;9.30;99.90
50162;DHT22;36061;48.116;11.612;2023-04-16T11:41:19;9.30;99.90
50162;DHT22;36061;48.116;11.612;2023-04-16T11:43:48;9.30;99.90
50162;DHT22;36061;48.116;11.612;2023-04-16T11:46:15;9.30;99.90
50162;DHT22;36061;48.116;11.612;2023-04-16T11:48:46;9.30;99.90
50162;DHT22;36061;48.116;11.612;2023-04-16T11:51:14;9.20;99.90
50162;DHT22;36061;48.116;11.612;2023-04-16T11:53:45;9.20;99.90
50162;DHT22;36061;48.116;11.612;2023-04-16T11:56:13;9.20;99.90
50162;DHT22;36061;48.116;11.612;2023-04-16T11:58:40;9.10;99.90
50162;DHT22;36061;48.116;11.612;2023-04-16T12:01:09;9.10;99.90
50162;DHT22;36061;48.116;11.612;2023-04-16T12:03:38;9.20;99.90
50162;DHT22;36061;48.116;11.612;2023-04-16T12:06:08;9.20;99.90
50162;DHT22;36061;48.116;11.612;2023-04-16T12:08:35;9.30;99.90
50162;DHT22;36061;48.116;11.612;2023-04-16T12:11:02;9.20;99.90
50162;DHT22;36061;48.116;11.612;2023-04-16T12:13:30;9.30;99.90
50162;DHT22;36061;48.116;11.612;2023-04-16T12:16:17;9.20;99.90
50162;DHT22;36061;48.116;11.612;2023-04-16T12:19:03;9.30;99.90
50162;DHT22;36061;48.116;11.612;2023-04-16T12:21:38;9.30;99.90
50162;DHT22;36061;48.116;11.612;2023-04-16T12:24:06;9.20;99.90
50162;DHT22;36061;48.116;11.612;2023-04-16T12:26:38;9.20;99.90
50162;DHT22;36061;48.116;11.612;2023-04-16T12:29:19;9.20;99.90
50162;DHT22;36061;48.116;11.612;2023-04-16T12:31:49;9.20;99.90
50162;DHT22;36061;48.116;11.612;2023-04-16T12:34:17;9.20;99.90
50162;DHT22;36061;48.116;11.612;2023-04-16T12:36:46;9.20;99.90
50162;DHT22;36061;48.116;11.612;2023-04-16T12:39:14;9.20;99.90
50162;DHT22;36061;48.116;11.612;2023-04-16T12:41:43;9.30;99.90
50162;DHT22;36061;48.116;11.612;2023-04-16T12:44:14;9.30;99.90
50162;DHT22;36061;48.116;11.612;2023-04-16T12:46:43;9.40;99.90
50162;DHT22;36061;48.116;11.612;2023-04-16T12:49:12;9.40;99.90
50162;DHT22;36061;48.116;11.612;2023-04-16T12:51:39;9.40;99.90
50162;DHT22;36061;48.116;11.612;2023-04-16T12:54:07;9.40;99.90
50162;DHT22;36061;48.116;11.612;2023-04-16T12:56:34;9.40;99.90
50162;DHT22;36061;48.116;11.612;2023-04-16T12:59:01;9.40;99.90
50162;DHT22;36061;48.116;11.612;2023-04-16T13:01:28;9.50;99.90
50162;DHT22;36061;48.116;11.612;2023-04-16T13:03:56;9.50;99.90
50162;DHT22;36061;48.116;11.612;2023-04-16T13:06:24;9.50;99.90
50162;DHT22;36061;48.116;11.612;2023-04-16T13:08:52;9.40;99.90
50162;DHT22;36061;48.116;11.612;2023-04-16T13:11:19;9.30;99.90
50162;DHT22;36061;48.116;11.612;2023-04-16T13:13:47;9.20;99.90
50162;DHT22;36061;48.116;11.612;2023-04-16T13:16:14;9.30;99.90
50162;DHT22;36061;48.116;11.612;2023-04-16T13:18:41;9.40;99.90
50162;DHT22;36061;48.116;11.612;2023-04-16T13:21:08;9.30;99.90
50162;DHT22;36061;48.116;11.612;2023-04-16T13:23:37;9.30;99.90
50162;DHT22;36061;48.116;11.612;2023-04-16T13:26:04;9.20;99.90
50162;DHT22;36061;48.116;11.612;2023-04-16T13:28:31;9.10;99.90
50162;DHT22;36061;48.116;11.612;2023-04-16T13:30:58;9.00;99.90
50162;DHT22;36061;48.116;11.612;2023-04-16T13:33:26;9.00;99.90
50162;DHT22;36061;48.116;11.612;2023-04-16T13:35:53;9.00;99.90
50162;DHT22;36061;48.116;11.612;2023-04-16T13:38:20;9.00;99.90
50162;DHT22;36061;48.116;11.612;2023-04-16T13:40:49;9.00;99.90
50162;DHT22;36061;48.116;11.612;2023-04-16T13:43:16;8.90;99.90
50162;DHT22;36061;48.116;11.612;2023-04-16T13:45:43;8.90;99.90
50162;DHT22;36061;48.116;11.612;2023-04-16T13:48:11;8.90;99.90
50162;DHT22;36061;48.116;11.612;2023-04-16T13:50:38;8.80;99.90
50162;DHT22;36061;48.116;11.612;2023-04-16T13:53:05;8.90;99.90
50162;DHT22;36061;48.116;11.612;2023-04-16T13:55:32;8.90;99.90
50162;DHT22;36061;48.116;11.612;2023-04-16T13:58:02;8.90;99.90
50162;DHT22;36061;48.116;11.612;2023-04-16T14:00:29;8.90;99.90
50162;DHT22;36061;48.116;11.612;2023-04-16T14:02:56;9.00;99.90
50162;DHT22;36061;48.116;11.612;2023-04-16T14:05:23;9.00;99.90
50162;DHT22;36061;48.116;11.612;2023-04-16T14:07:50;9.00;99.90
50162;DHT22;36061;48.116;11.612;2023-04-16T14:10:18;9.10;99.90
50162;DHT22;36061;48.116;11.612;2023-04-16T14:12:45;9.10;99.90
50162;DHT22;36061;48.116;11.612;2023-04-16T14:15:14;9.10;99.90
50162;DHT22;36061;48.116;11.612;2023-04-16T14:17:41;9.10;99.90
50162;DHT22;36061;48.116;11.612;2023-04-16T14:20:10;9.10;99.90
50162;DHT22;36061;48.116;11.612;2023-04-16T14:22:37;9.10;99.90
50162;DHT22;36061;48.116;11.612;2023-04-16T14:25:05;9.10;99.90
50162;DHT22;36061;48.116;11.612;2023-04-16T14:27:33;9.20;99.90
50162;DHT22;36061;48.116;11.612;2023-04-16T14:30:00;9.20;99.90
50162;DHT22;36061;48.116;11.612;2023-04-16T14:32:29;9.20;99.90
50162;DHT22;36061;48.116;11.612;2023-04-16T14:34:56;9.30;99.90
50162;DHT22;36061;48.116;11.612;2023-04-16T14:37:23;9.20;99.90
50162;DHT22;36061;48.116;11.612;2023-04-16T14:39:51;9.10;99.90
50162;DHT22;36061;48.116;11.612;2023-04-16T14:42:18;9.10;99.90
50162;DHT22;36061;48.116;11.612;2023-04-16T14:44:47;9.10;99.90
50162;DHT22;36061;48.116;11.612;2023-04-16T14:47:14;9.10;99.90
50162;DHT22;36061;48.116;11.612;2023-04-16T14:49:42;9.10;99.90
50162;DHT22;36061;48.116;11.612;2023-04-16T14:52:10;9.10;99.90
50162;DHT22;36061;48.116;11.612;2023-04-16T14:54:37;9.10;99.90
50162;DHT22;36061;48.116;11.612;2023-04-16T14:57:04;9.10;99.90
50162;DHT22;36061;48.116;11.612;2023-04-16T14:59:32;9.20;99.90
50162;DHT22;36061;48.116;11.612;2023-04-16T15:01:59;9.10;99.90
50162;DHT22;36061;48.116;11.612;2023-04-16T15:04:26;9.10;99.90
50162;DHT22;36061;48.116;11.612;2023-04-16T15:06:55;9.10;99.90
50162;DHT22;36061;48.116;11.612;2023-04-16T15:09:24;9.10;99.90
50162;DHT22;36061;48.116;11.612;2023-04-16T15:11:52;9.10;99.90
50162;DHT22;36061;48.116;11.612;2023-04-16T15:14:20;9.10;99.90
50162;DHT22;36061;48.116;11.612;2023-04-16T15:16:47;9.20;99.90
50162;DHT22;36061;48.116;11.612;2023-04-16T15:19:15;9.20;99.90
50162;DHT22;36061;48.116;11.612;2023-04-16T15:21:42;9.10;99.90
50162;DHT22;36061;48.116;11.612;2023-04-16T15:24:11;9.10;99.90
50162;DHT22;36061;48.116;11.612;2023-04-16T15:26:38;9.10;99.90
50162;DHT22;36061;48.116;11.612;2023-04-16T15:29:05;9.10;99.90
50162;DHT22;36061;48.116;11.612;2023-04-16T15:31:32;9.10;99.90
50162;DHT22;36061;48.116;11.612;2023-04-16T15:33:59;9.20;99.90
50162;DHT22;36061;48.116;11.612;2023-04-16T15:36:27;9.30;99.90